Time,TemperatureF,DewpointF,PressureIn,WindDirection,WindDirectionDegrees,WindSpeedMPH,WindSpeedGustMPH,Humidity,HourlyPrecipIn,Conditions,Clouds,dailyrainin,SoftwareType,DateUTC
2014-01-08 00:00:00,-7.6,-15.6,29.06,WSW,248,0.0,0.0,67,0.00,,,0.00,WUHU216HW,2014-01-08 06:00:00,
2014-01-08 00:05:00,-7.6,-15.6,29.06,WSW,248,0.0,0.0,67,0.00,,,0.00,WUHU216HW,2014-01-08 06:05:00,
2014-01-08 00:30:00,-8.5,-16.3,29.06,SSW,203,0.0,0.0,68,0.00,,,0.00,WUHU216HW,2014-01-08 06:30:00,
2014-01-08 00:35:00,-8.5,-16.3,29.06,SSW,203,0.0,0.0,68,0.00,,,0.00,WUHU216HW,2014-01-08 06:35:00,
2014-01-08 01:00:00,-9.4,-17.2,29.07,WSW,248,0.0,0.0,68,0.00,,,0.00,WUHU216HW,2014-01-08 07:00:00,
2014-01-08 01:05:00,-9.4,-17.2,29.07,WSW,248,0.0,0.0,68,0.00,,,0.00,WUHU216HW,2014-01-08 07:05:00,
2014-01-08 01:06:00,-9.4,-17.2,29.07,WSW,248,0.0,0.0,68,0.00,,,0.00,WUHU216HW,2014-01-08 07:06:00,
2014-01-08 01:30:00,-9.9,-17.7,29.08,WSW,248,0.0,0.0,68,0.00,,,0.00,WUHU216HW,2014-01-08 07:30:00,
2014-01-08 01:35:00,-9.9,-17.7,29.08,WSW,248,0.0,0.0,68,0.00,,,0.00,WUHU216HW,2014-01-08 07:35:00,
2014-01-08 01:59:00,-10.3,-18.1,29.08,WSW,248,0.0,0.0,68,0.00,,,0.00,WUHU216HW,2014-01-08 07:59:00,
2014-01-08 02:00:00,-10.3,-18.1,29.08,WSW,248,0.0,0.0,68,0.00,,,0.00,WUHU216HW,2014-01-08 08:00:00,
2014-01-08 02:05:00,-10.3,-18.1,29.08,WSW,248,0.0,0.0,68,0.00,,,0.00,WUHU216HW,2014-01-08 08:05:00,
2014-01-08 02:30:00,-10.1,-17.5,29.09,West,270,1.3,1.3,69,0.00,,,0.00,WUHU216HW,2014-01-08 08:30:00,
2014-01-08 02:35:00,-10.1,-17.5,29.09,West,270,1.3,1.3,69,0.00,,,0.00,WUHU216HW,2014-01-08 08:35:00,
2014-01-08 02:59:00,-7.4,-14.1,29.08,West,270,0.7,0.7,72,0.00,,,0.00,WUHU216HW,2014-01-08 08:59:00,
2014-01-08 03:00:00,-7.4,-14.1,29.08,West,270,0.7,0.7,72,0.00,,,0.00,WUHU216HW,2014-01-08 09:00:00,
2014-01-08 03:05:00,-7.4,-14.1,29.08,West,270,0.7,0.7,72,0.00,,,0.00,WUHU216HW,2014-01-08 09:05:00,
2014-01-08 03:30:00,-6.8,-13.9,29.09,WSW,248,0.0,0.0,71,0.00,,,0.00,WUHU216HW,2014-01-08 09:30:00,
2014-01-08 03:35:00,-6.8,-13.9,29.09,WSW,248,0.0,0.0,71,0.00,,,0.00,WUHU216HW,2014-01-08 09:35:00,
2014-01-08 03:36:00,-6.8,-13.9,29.09,WSW,248,0.0,0.0,71,0.00,,,0.00,WUHU216HW,2014-01-08 09:36:00,
2014-01-08 03:59:00,-7.9,-15.1,29.09,WSW,248,0.2,0.2,70,0.00,,,0.00,WUHU216HW,2014-01-08 09:59:00,
2014-01-08 04:00:00,-7.9,-15.1,29.09,WSW,248,0.2,0.2,70,0.00,,,0.00,WUHU216HW,2014-01-08 10:00:00,
2014-01-08 04:05:00,-7.9,-15.1,29.09,WSW,248,0.2,0.2,70,0.00,,,0.00,WUHU216HW,2014-01-08 10:05:00,
2014-01-08 04:06:00,-7.9,-15.1,29.09,WSW,248,0.2,0.2,70,0.00,,,0.00,WUHU216HW,2014-01-08 10:06:00,
2014-01-08 04:30:00,-8.5,-15.4,29.08,NNW,338,1.6,1.6,71,0.00,,,0.00,WUHU216HW,2014-01-08 10:30:00,
2014-01-08 04:35:00,-8.5,-15.4,29.08,NNW,338,1.6,1.6,71,0.00,,,0.00,WUHU216HW,2014-01-08 10:35:00,
2014-01-08 04:59:00,-8.8,-16.0,29.09,WSW,248,0.0,0.0,70,0.00,,,0.00,WUHU216HW,2014-01-08 10:59:00,
2014-01-08 05:00:00,-8.8,-16.0,29.09,WSW,248,0.0,0.0,70,0.00,,,0.00,WUHU216HW,2014-01-08 11:00:00,
2014-01-08 05:05:00,-8.8,-16.0,29.09,WSW,248,0.0,0.0,70,0.00,,,0.00,WUHU216HW,2014-01-08 11:05:00,
2014-01-08 05:30:00,-9.7,-16.9,29.11,WSW,248,0.2,0.2,70,0.00,,,0.00,WUHU216HW,2014-01-08 11:30:00,
2014-01-08 05:35:00,-9.7,-16.9,29.11,WSW,248,0.2,0.2,70,0.00,,,0.00,WUHU216HW,2014-01-08 11:35:00,
2014-01-08 05:59:00,-10.4,-17.4,29.12,WSW,248,0.0,0.0,71,0.00,,,0.00,WUHU216HW,2014-01-08 11:59:00,
2014-01-08 06:00:00,-10.4,-17.4,29.12,WSW,248,0.0,0.0,71,0.00,,,0.00,WUHU216HW,2014-01-08 12:00:00,
2014-01-08 06:05:00,-10.4,-17.4,29.12,WSW,248,0.0,0.0,71,0.00,,,0.00,WUHU216HW,2014-01-08 12:05:00,
2014-01-08 06:06:00,-10.4,-17.4,29.12,WSW,248,0.0,0.0,71,0.00,,,0.00,WUHU216HW,2014-01-08 12:06:00,
2014-01-08 06:30:00,-11.2,-18.1,29.13,SW,225,0.0,0.0,71,0.00,,,0.00,WUHU216HW,2014-01-08 12:30:00,
2014-01-08 06:35:00,-11.2,-18.1,29.13,SW,225,0.0,0.0,71,0.00,,,0.00,WUHU216HW,2014-01-08 12:35:00,
2014-01-08 06:36:00,-11.2,-18.1,29.13,SW,225,0.0,0.0,71,0.00,,,0.00,WUHU216HW,2014-01-08 12:36:00,
2014-01-08 06:59:00,-11.7,-18.5,29.15,SSW,203,0.0,0.0,71,0.00,,,0.00,WUHU216HW,2014-01-08 12:59:00,
2014-01-08 07:00:00,-11.7,-18.5,29.15,SSW,203,0.0,0.0,71,0.00,,,0.00,WUHU216HW,2014-01-08 13:00:00,
2014-01-08 07:01:00,-11.7,-18.5,29.15,SSW,203,0.0,0.0,71,0.00,,,0.00,WUHU216HW,2014-01-08 13:01:00,
2014-01-08 07:05:00,-11.7,-18.5,29.15,SSW,203,0.0,0.0,71,0.00,,,0.00,WUHU216HW,2014-01-08 13:05:00,
2014-01-08 07:06:00,-11.7,-18.5,29.15,SSW,203,0.0,0.0,71,0.00,,,0.00,WUHU216HW,2014-01-08 13:06:00,
2014-01-08 07:30:00,-11.3,-18.3,29.15,SSW,203,0.0,0.0,71,0.00,,,0.00,WUHU216HW,2014-01-08 13:30:00,
2014-01-08 07:35:00,-11.3,-18.3,29.15,SSW,203,0.0,0.0,71,0.00,,,0.00,WUHU216HW,2014-01-08 13:35:00,
2014-01-08 07:59:00,-11.0,-17.9,29.16,SSW,203,0.0,0.0,71,0.00,,,0.00,WUHU216HW,2014-01-08 13:59:00,
2014-01-08 08:00:00,-11.0,-17.9,29.16,SSW,203,0.0,0.0,71,0.00,,,0.00,WUHU216HW,2014-01-08 14:00:00,
2014-01-08 08:05:00,-11.0,-17.9,29.16,SSW,203,0.0,0.0,71,0.00,,,0.00,WUHU216HW,2014-01-08 14:05:00,
2014-01-08 08:30:00,-9.2,-15.8,29.17,WNW,293,0.9,0.9,72,0.00,,,0.00,WUHU216HW,2014-01-08 14:30:00,
2014-01-08 08:35:00,-9.2,-15.8,29.17,WNW,293,0.9,0.9,72,0.00,,,0.00,WUHU216HW,2014-01-08 14:35:00,
2014-01-08 08:59:00,-6.3,-12.9,29.19,West,270,0.7,0.7,73,0.00,,,0.00,WUHU216HW,2014-01-08 14:59:00,
2014-01-08 09:00:00,-6.3,-12.9,29.19,West,270,0.7,0.7,73,0.00,,,0.00,WUHU216HW,2014-01-08 15:00:00,
2014-01-08 09:05:00,-6.3,-12.9,29.19,West,270,0.7,0.7,73,0.00,,,0.00,WUHU216HW,2014-01-08 15:05:00,
2014-01-08 09:30:00,-1.8,-9.2,29.19,NW,315,1.1,1.1,70,0.00,,,0.00,WUHU216HW,2014-01-08 15:30:00,
2014-01-08 09:35:00,-1.8,-9.2,29.19,NW,315,1.1,1.1,70,0.00,,,0.00,WUHU216HW,2014-01-08 15:35:00,
2014-01-08 10:00:00,-0.9,-10.0,29.21,NNW,338,4.0,4.0,65,0.00,,,0.00,WUHU216HW,2014-01-08 16:00:00,
2014-01-08 10:01:00,-0.9,-10.0,29.21,NNW,338,4.0,4.0,65,0.00,,,0.00,WUHU216HW,2014-01-08 16:01:00,
2014-01-08 10:05:00,-0.9,-10.0,29.21,NNW,338,4.0,4.0,65,0.00,,,0.00,WUHU216HW,2014-01-08 16:05:00,
2014-01-08 10:06:00,-0.9,-10.0,29.21,NNW,338,4.0,4.0,65,0.00,,,0.00,WUHU216HW,2014-01-08 16:06:00,
2014-01-08 10:30:00,0.4,-9.1,29.21,NW,315,3.8,3.8,64,0.00,,,0.00,WUHU216HW,2014-01-08 16:30:00,
2014-01-08 10:35:00,0.4,-9.1,29.21,NW,315,3.8,3.8,64,0.00,,,0.00,WUHU216HW,2014-01-08 16:35:00,
2014-01-08 11:00:00,1.4,-8.4,29.21,NNW,338,4.7,4.7,63,0.00,,,0.00,WUHU216HW,2014-01-08 17:00:00,
2014-01-08 11:05:00,1.4,-8.4,29.21,NNW,338,4.7,4.7,63,0.00,,,0.00,WUHU216HW,2014-01-08 17:05:00,
2014-01-08 11:30:00,3.1,-7.4,29.20,West,270,2.7,2.7,61,0.00,,,0.00,WUHU216HW,2014-01-08 17:30:00,
2014-01-08 11:35:00,3.1,-7.4,29.20,West,270,2.7,2.7,61,0.00,,,0.00,WUHU216HW,2014-01-08 17:35:00,
2014-01-08 12:00:00,4.5,-6.1,29.20,NW,315,4.0,4.0,61,0.00,,,0.00,WUHU216HW,2014-01-08 18:00:00,
2014-01-08 12:01:00,4.5,-6.1,29.20,NW,315,4.0,4.0,61,0.00,,,0.00,WUHU216HW,2014-01-08 18:01:00,
2014-01-08 12:05:00,4.5,-6.1,29.20,NW,315,4.0,4.0,61,0.00,,,0.00,WUHU216HW,2014-01-08 18:05:00,
2014-01-08 12:06:00,4.5,-6.1,29.20,NW,315,4.0,4.0,61,0.00,,,0.00,WUHU216HW,2014-01-08 18:06:00,
2014-01-08 12:30:00,4.9,-6.1,29.20,WSW,248,1.8,1.8,60,0.00,,,0.00,WUHU216HW,2014-01-08 18:30:00,
2014-01-08 12:35:00,4.9,-6.1,29.20,WSW,248,1.8,1.8,60,0.00,,,0.00,WUHU216HW,2014-01-08 18:35:00,
2014-01-08 12:59:00,5.0,-5.9,29.19,WNW,293,8.3,8.3,60,0.00,,,0.00,WUHU216HW,2014-01-08 18:59:00,
2014-01-08 13:00:00,5.0,-5.9,29.19,WNW,293,8.3,8.3,60,0.00,,,0.00,WUHU216HW,2014-01-08 19:00:00,
2014-01-08 13:05:00,5.0,-5.9,29.19,WNW,293,8.3,8.3,60,0.00,,,0.00,WUHU216HW,2014-01-08 19:05:00,
2014-01-08 13:30:00,5.4,-5.9,29.19,WSW,248,3.1,3.1,59,0.00,,,0.00,WUHU216HW,2014-01-08 19:30:00,
2014-01-08 13:35:00,5.4,-5.9,29.19,WSW,248,3.1,3.1,59,0.00,,,0.00,WUHU216HW,2014-01-08 19:35:00,
2014-01-08 14:00:00,6.5,-5.2,29.20,NW,315,4.7,4.7,58,0.00,,,0.00,WUHU216HW,2014-01-08 20:00:00,
2014-01-08 14:01:00,6.5,-5.2,29.20,NW,315,4.7,4.7,58,0.00,,,0.00,WUHU216HW,2014-01-08 20:01:00,
2014-01-08 14:05:00,6.5,-5.2,29.20,NW,315,4.7,4.7,58,0.00,,,0.00,WUHU216HW,2014-01-08 20:05:00,
2014-01-08 14:06:00,6.5,-5.2,29.20,NW,315,4.7,4.7,58,0.00,,,0.00,WUHU216HW,2014-01-08 20:06:00,
2014-01-08 14:30:00,5.8,-5.9,29.21,WNW,293,2.5,2.5,58,0.00,,,0.00,WUHU216HW,2014-01-08 20:30:00,
2014-01-08 14:35:00,5.8,-5.9,29.21,WNW,293,2.5,2.5,58,0.00,,,0.00,WUHU216HW,2014-01-08 20:35:00,
2014-01-08 15:00:00,4.7,-6.7,29.22,West,270,1.8,1.8,59,0.00,,,0.00,WUHU216HW,2014-01-08 21:00:00,
2014-01-08 15:05:00,4.7,-6.7,29.22,West,270,1.8,1.8,59,0.00,,,0.00,WUHU216HW,2014-01-08 21:05:00,
2014-01-08 15:30:00,4.0,-6.9,29.23,West,270,0.4,0.4,60,0.00,,,0.00,WUHU216HW,2014-01-08 21:30:00,
2014-01-08 15:35:00,4.0,-6.9,29.23,West,270,0.4,0.4,60,0.00,,,0.00,WUHU216HW,2014-01-08 21:35:00,
2014-01-08 16:00:00,2.9,-7.9,29.25,NW,315,3.4,3.4,60,0.00,,,0.00,WUHU216HW,2014-01-08 22:00:00,
2014-01-08 16:05:00,2.9,-7.9,29.25,NW,315,3.4,3.4,60,0.00,,,0.00,WUHU216HW,2014-01-08 22:05:00,
2014-01-08 16:30:00,1.8,-8.6,29.25,West,270,1.1,1.1,61,0.00,,,0.00,WUHU216HW,2014-01-08 22:30:00,
2014-01-08 16:35:00,1.8,-8.6,29.25,West,270,1.1,1.1,61,0.00,,,0.00,WUHU216HW,2014-01-08 22:35:00,
2014-01-08 17:00:00,0.5,-9.5,29.26,WSW,248,0.7,0.7,62,0.00,,,0.00,WUHU216HW,2014-01-08 23:00:00,
2014-01-08 17:05:00,0.5,-9.5,29.26,WSW,248,0.7,0.7,62,0.00,,,0.00,WUHU216HW,2014-01-08 23:05:00,
2014-01-08 17:30:00,-0.9,-10.6,29.26,West,270,0.2,0.2,63,0.00,,,0.00,WUHU216HW,2014-01-08 23:30:00,
2014-01-08 17:35:00,-0.9,-10.6,29.26,West,270,0.2,0.2,63,0.00,,,0.00,WUHU216HW,2014-01-08 23:35:00,
2014-01-08 18:00:00,-2.2,-11.8,29.27,West,270,0.0,0.0,63,0.00,,,0.00,WUHU216HW,2014-01-09 00:00:00,
2014-01-08 18:05:00,-2.2,-11.8,29.27,West,270,0.0,0.0,63,0.00,,,0.00,WUHU216HW,2014-01-09 00:05:00,
2014-01-08 18:30:00,-4.3,-13.5,29.27,West,270,0.0,0.0,64,0.00,,,0.00,WUHU216HW,2014-01-09 00:30:00,
2014-01-08 18:35:00,-4.3,-13.5,29.27,West,270,0.0,0.0,64,0.00,,,0.00,WUHU216HW,2014-01-09 00:35:00,
2014-01-08 19:00:00,-5.8,-14.7,29.28,West,270,0.0,0.0,65,0.00,,,0.00,WUHU216HW,2014-01-09 01:00:00,
2014-01-08 19:05:00,-5.8,-14.7,29.28,West,270,0.0,0.0,65,0.00,,,0.00,WUHU216HW,2014-01-09 01:05:00,
2014-01-08 19:30:00,-7.0,-15.5,29.29,West,270,0.0,0.0,66,0.00,,,0.00,WUHU216HW,2014-01-09 01:30:00,
2014-01-08 19:35:00,-7.0,-15.5,29.29,West,270,0.0,0.0,66,0.00,,,0.00,WUHU216HW,2014-01-09 01:35:00,
2014-01-08 20:00:00,-8.1,-16.6,29.29,West,270,0.0,0.0,66,0.00,,,0.00,WUHU216HW,2014-01-09 02:00:00,
2014-01-08 20:05:00,-8.1,-16.6,29.29,West,270,0.0,0.0,66,0.00,,,0.00,WUHU216HW,2014-01-09 02:05:00,
2014-01-08 20:30:00,-8.8,-16.9,29.30,WNW,293,0.0,0.0,67,0.00,,,0.00,WUHU216HW,2014-01-09 02:30:00,
2014-01-08 20:35:00,-8.8,-16.9,29.30,WNW,293,0.0,0.0,67,0.00,,,0.00,WUHU216HW,2014-01-09 02:35:00,
2014-01-08 21:00:00,-9.2,-17.0,29.30,West,270,0.0,0.0,68,0.00,,,0.00,WUHU216HW,2014-01-09 03:00:00,
2014-01-08 21:05:00,-9.2,-17.0,29.30,West,270,0.0,0.0,68,0.00,,,0.00,WUHU216HW,2014-01-09 03:05:00,
2014-01-08 21:30:00,-9.7,-17.5,29.31,West,270,0.0,0.0,68,0.00,,,0.00,WUHU216HW,2014-01-09 03:30:00,
2014-01-08 21:35:00,-9.7,-17.5,29.31,West,270,0.0,0.0,68,0.00,,,0.00,WUHU216HW,2014-01-09 03:35:00,
2014-01-08 22:00:00,-10.3,-18.1,29.30,West,270,0.0,0.0,68,0.00,,,0.00,WUHU216HW,2014-01-09 04:00:00,
2014-01-08 22:05:00,-10.3,-18.1,29.30,West,270,0.0,0.0,68,0.00,,,0.00,WUHU216HW,2014-01-09 04:05:00,
2014-01-08 22:30:00,-10.6,-18.4,29.30,West,270,0.0,0.0,68,0.00,,,0.00,WUHU216HW,2014-01-09 04:30:00,
2014-01-08 22:35:00,-10.6,-18.4,29.30,West,270,0.0,0.0,68,0.00,,,0.00,WUHU216HW,2014-01-09 04:35:00,
2014-01-08 23:00:00,-11.7,-19.2,29.30,West,270,0.2,0.2,69,0.00,,,0.00,WUHU216HW,2014-01-09 05:00:00,
2014-01-08 23:01:00,-11.7,-19.2,29.30,West,270,0.2,0.2,69,0.00,,,0.00,WUHU216HW,2014-01-09 05:01:00,
2014-01-08 23:02:00,-11.7,-19.2,29.30,West,270,0.2,0.2,69,0.00,,,0.00,WUHU216HW,2014-01-09 05:02:00,
2014-01-08 23:06:00,-11.7,-19.2,29.30,West,270,0.2,0.2,69,0.00,,,0.00,WUHU216HW,2014-01-09 05:06:00,
2014-01-08 23:07:00,-11.7,-19.2,29.30,West,270,0.2,0.2,69,0.00,,,0.00,WUHU216HW,2014-01-09 05:07:00,
2014-01-08 23:30:00,-12.6,-20.0,29.30,West,270,0.0,0.0,69,0.00,,,0.00,WUHU216HW,2014-01-09 05:30:00,
2014-01-08 23:35:00,-12.6,-20.0,29.30,West,270,0.0,0.0,69,0.00,,,0.00,WUHU216HW,2014-01-09 05:35:00,